Time;durP1;ratioP1;P1;durP2;ratioP2;P2;SDS_P1;SDS_P2;PMS_P1;PMS_P2;Temp;Humidity;BMP_temperature;BMP_pressure;BME280_temperature;BME280_humidity;BME280_pressure;Samples;Min_cycle;Max_cycle;Signal;HPM_P1;HPM_P2
2020/12/13 00:00:29;;;;;;;74.30;27.37;;;;;;;;;;5015805;28;20425;-53
2020/12/13 00:02:56;;;;;;;76.10;26.73;;;;;;;;;;5016337;28;20407;-53
2020/12/13 00:05:22;;;;;;;69.20;26.87;;;;;;;;;;5015673;28;20418;-55
2020/12/13 00:07:50;;;;;;;63.00;25.30;;;;;;;;;;5017148;28;20454;-54
2020/12/13 00:10:17;;;;;;;67.27;28.33;;;;;;;;;;5015737;28;20464;-56
2020/12/13 00:12:49;;;;;;;61.47;26.00;;;;;;;;;;5016386;28;20406;-53
2020/12/13 00:15:15;;;;;;;67.47;27.20;;;;;;;;;;5013536;28;20478;-53
2020/12/13 00:17:41;;;;;;;73.93;26.60;;;;;;;;;;5013658;28;20516;-53
2020/12/13 00:20:07;;;;;;;65.13;27.43;;;;;;;;;;5011072;28;20505;-56
2020/12/13 00:22:33;;;;;;;64.00;26.17;;;;;;;;;;5010350;28;20414;-56
2020/12/13 00:24:59;;;;;;;60.07;25.33;;;;;;;;;;5011181;28;20426;-55
2020/12/13 00:27:25;;;;;;;66.07;26.43;;;;;;;;;;5011364;28;20862;-56
2020/12/13 00:29:51;;;;;;;71.07;26.63;;;;;;;;;;5011032;28;20406;-56
2020/12/13 00:32:17;;;;;;;69.73;25.73;;;;;;;;;;5011161;28;20462;-56
2020/12/13 00:34:43;;;;;;;73.83;27.07;;;;;;;;;;5010921;28;20439;-55
2020/12/13 00:37:09;;;;;;;56.07;24.63;;;;;;;;;;5011251;28;20907;-56
2020/12/13 00:39:38;;;;;;;68.43;27.03;;;;;;;;;;5011113;28;20421;-56
2020/12/13 00:42:04;;;;;;;82.17;27.30;;;;;;;;;;5010814;28;20415;-55
2020/12/13 00:44:30;;;;;;;59.97;24.63;;;;;;;;;;5010187;28;21222;-56
2020/12/13 00:46:56;;;;;;;76.00;27.50;;;;;;;;;;5010933;28;20451;-56
2020/12/13 00:49:22;;;;;;;75.90;27.87;;;;;;;;;;5010926;28;20406;-55
2020/12/13 00:51:48;;;;;;;59.00;25.33;;;;;;;;;;5010932;28;20411;-56
2020/12/13 00:54:14;;;;;;;72.10;28.77;;;;;;;;;;5010796;28;20430;-55
2020/12/13 00:56:43;;;;;;;73.53;27.73;;;;;;;;;;5010812;28;20605;-56
2020/12/13 00:59:09;;;;;;;70.37;26.40;;;;;;;;;;5010962;28;20407;-56
2020/12/13 01:01:35;;;;;;;80.40;26.93;;;;;;;;;;5010811;28;20413;-56
2020/12/13 01:04:01;;;;;;;70.07;24.97;;;;;;;;;;5010632;28;20530;-55
2020/12/13 01:06:27;;;;;;;68.77;25.03;;;;;;;;;;5010811;28;20465;-56
2020/12/13 01:08:54;;;;;;;75.53;27.10;;;;;;;;;;5010899;28;20410;-56
2020/12/13 01:11:27;;;;;;;66.83;24.63;;;;;;;;;;5010961;28;20402;-56
2020/12/13 01:13:53;;;;;;;71.50;27.30;;;;;;;;;;5010668;28;20489;-55
2020/12/13 01:16:19;;;;;;;68.03;27.07;;;;;;;;;;5010046;28;20441;-56
2020/12/13 01:18:45;;;;;;;58.17;25.30;;;;;;;;;;5010498;28;20417;-56
2020/12/13 01:21:22;;;;;;;67.43;25.87;;;;;;;;;;5011208;28;20410;-56
2020/12/13 01:23:48;;;;;;;64.47;25.97;;;;;;;;;;5010706;28;20406;-56
2020/12/13 01:26:14;;;;;;;63.50;27.03;;;;;;;;;;5012690;28;20960;-56
2020/12/13 01:28:41;;;;;;;58.27;25.50;;;;;;;;;;5014784;28;20418;-56
2020/12/13 01:31:07;;;;;;;73.37;27.40;;;;;;;;;;5014822;28;20910;-56
2020/12/13 01:33:33;;;;;;;66.93;26.43;;;;;;;;;;5014294;28;20411;-56
2020/12/13 01:36:00;;;;;;;69.43;25.97;;;;;;;;;;5014668;28;20423;-56
2020/12/13 01:38:26;;;;;;;68.50;27.53;;;;;;;;;;5014312;28;20395;-55
2020/12/13 01:40:56;;;;;;;69.80;27.87;;;;;;;;;;5014477;28;20434;-56
2020/12/13 01:43:22;;;;;;;66.57;26.47;;;;;;;;;;5014305;28;20951;-56
2020/12/13 01:45:48;;;;;;;63.30;26.30;;;;;;;;;;5013315;28;21158;-55
2020/12/13 01:48:14;;;;;;;67.53;27.30;;;;;;;;;;5014289;28;20481;-56
2020/12/13 01:50:58;;;;;;;52.63;24.57;;;;;;;;;;5014093;28;20961;-56
2020/12/13 01:53:24;;;;;;;69.37;25.80;;;;;;;;;;5013978;28;20398;-56
2020/12/13 01:55:51;;;;;;;62.17;26.13;;;;;;;;;;5013917;28;20485;-55
2020/12/13 01:58:19;;;;;;;63.70;24.93;;;;;;;;;;5014072;28;20506;-56
2020/12/13 02:00:47;;;;;;;80.87;27.87;;;;;;;;;;5013515;28;20394;-55
2020/12/13 02:03:17;;;;;;;58.83;25.33;;;;;;;;;;5013209;28;20398;-55
2020/12/13 02:05:46;;;;;;;62.87;25.57;;;;;;;;;;5012980;28;20514;-56
2020/12/13 02:08:12;;;;;;;60.63;24.47;;;;;;;;;;5013963;28;20411;-56
2020/12/13 02:10:38;;;;;;;58.77;24.03;;;;;;;;;;5013552;28;20922;-55
2020/12/13 02:13:03;;;;;;;59.63;24.93;;;;;;;;;;5013656;28;20511;-55
2020/12/13 02:15:29;;;;;;;59.60;25.17;;;;;;;;;;5012841;28;20482;-56
2020/12/13 02:17:56;;;;;;;58.53;25.50;;;;;;;;;;5013672;28;20438;-56
2020/12/13 02:20:22;;;;;;;57.80;24.07;;;;;;;;;;5013643;28;20403;-56
2020/12/13 02:22:48;;;;;;;59.80;23.50;;;;;;;;;;5013350;28;20503;-55
2020/12/13 02:25:17;;;;;;;56.03;24.40;;;;;;;;;;5013498;28;20431;-56
2020/12/13 02:27:42;;;;;;;54.37;24.07;;;;;;;;;;5013255;28;20447;-56
2020/12/13 02:30:09;;;;;;;65.70;24.13;;;;;;;;;;5013371;28;20403;-55
2020/12/13 02:32:35;;;;;;;57.87;23.40;;;;;;;;;;5013141;28;20418;-55
2020/12/13 02:35:01;;;;;;;69.43;24.37;;;;;;;;;;5013350;28;20457;-55
2020/12/13 02:37:28;;;;;;;62.67;27.13;;;;;;;;;;5012394;28;20439;-55
2020/12/13 02:39:54;;;;;;;60.50;24.70;;;;;;;;;;5013224;28;20408;-55
2020/12/13 02:42:20;;;;;;;60.10;27.40;;;;;;;;;;5012947;28;20410;-56
2020/12/13 02:44:46;;;;;;;69.87;25.90;;;;;;;;;;5012423;28;20516;-56
2020/12/13 02:47:12;;;;;;;71.13;26.50;;;;;;;;;;5012323;28;20799;-56
2020/12/13 02:49:42;;;;;;;67.93;24.33;;;;;;;;;;5013076;28;20461;-56
2020/12/13 02:52:08;;;;;;;60.63;23.70;;;;;;;;;;5012918;28;20441;-56
2020/12/13 02:54:34;;;;;;;62.40;23.17;;;;;;;;;;5012706;28;20450;-56
2020/12/13 02:57:00;;;;;;;59.80;24.07;;;;;;;;;;5013022;28;20403;-56
2020/12/13 02:59:26;;;;;;;71.13;26.17;;;;;;;;;;5012790;28;20489;-56
2020/12/13 03:01:52;;;;;;;59.07;23.80;;;;;;;;;;5012899;28;20618;-56
2020/12/13 03:04:18;;;;;;;58.77;24.50;;;;;;;;;;5012607;28;20423;-56
2020/12/13 03:06:44;;;;;;;66.70;26.73;;;;;;;;;;5012811;28;20461;-56
2020/12/13 03:09:10;;;;;;;65.80;25.70;;;;;;;;;;5012613;28;20447;-55
2020/12/13 03:11:36;;;;;;;71.70;26.47;;;;;;;;;;5012001;28;20438;-55
2020/12/13 03:14:02;;;;;;;68.23;28.00;;;;;;;;;;5012400;28;20426;-56
2020/12/13 03:16:28;;;;;;;72.73;27.93;;;;;;;;;;5012812;28;20883;-56
2020/12/13 03:18:54;;;;;;;76.13;26.90;;;;;;;;;;5012670;28;20399;-55
2020/12/13 03:21:20;;;;;;;84.10;29.10;;;;;;;;;;5012980;28;20406;-56
2020/12/13 03:23:46;;;;;;;74.67;26.27;;;;;;;;;;5012654;28;20414;-56
2020/12/13 03:26:12;;;;;;;70.00;26.83;;;;;;;;;;5012523;28;20485;-56
2020/12/13 03:28:38;;;;;;;77.43;30.53;;;;;;;;;;5012643;28;20493;-56
2020/12/13 03:31:04;;;;;;;78.20;28.83;;;;;;;;;;5012372;28;20406;-56
2020/12/13 03:33:30;;;;;;;79.97;29.37;;;;;;;;;;5012124;28;20427;-56
2020/12/13 03:35:56;;;;;;;75.67;27.37;;;;;;;;;;5012244;28;21168;-56
2020/12/13 03:38:22;;;;;;;79.07;27.83;;;;;;;;;;5012259;28;20442;-56
2020/12/13 03:40:48;;;;;;;68.47;28.77;;;;;;;;;;5012076;28;20439;-56
2020/12/13 03:43:14;;;;;;;81.43;29.87;;;;;;;;;;5011193;28;20427;-55
2020/12/13 03:45:40;;;;;;;85.97;30.87;;;;;;;;;;5011886;28;20778;-56
2020/12/13 03:48:06;;;;;;;89.43;29.43;;;;;;;;;;5012065;28;20461;-56
2020/12/13 03:50:38;;;;;;;82.93;30.33;;;;;;;;;;5011899;28;20505;-55
2020/12/13 03:53:11;;;;;;;82.43;30.93;;;;;;;;;;5011577;28;20434;-56
2020/12/13 03:55:37;;;;;;;80.37;32.10;;;;;;;;;;5011839;28;20461;-56
2020/12/13 03:58:04;;;;;;;85.87;31.33;;;;;;;;;;5011751;28;20414;-55
2020/12/13 04:00:30;;;;;;;76.43;30.37;;;;;;;;;;5011728;28;20465;-55
2020/12/13 04:02:57;;;;;;;89.87;31.10;;;;;;;;;;5011506;28;20468;-56
2020/12/13 04:05:24;;;;;;;74.10;31.30;;;;;;;;;;5011557;28;20431;-55
2020/12/13 04:07:50;;;;;;;86.87;32.50;;;;;;;;;;5011491;28;20515;-56
2020/12/13 04:10:16;;;;;;;89.07;31.57;;;;;;;;;;5011602;28;20403;-56
2020/12/13 04:12:42;;;;;;;79.67;31.57;;;;;;;;;;5010507;28;20800;-56
2020/12/13 04:15:08;;;;;;;87.40;33.87;;;;;;;;;;5011502;28;20429;-56
2020/12/13 04:17:34;;;;;;;90.57;35.70;;;;;;;;;;5011410;28;20415;-55
2020/12/13 04:20:00;;;;;;;84.90;31.10;;;;;;;;;;5011356;28;20410;-56
2020/12/13 04:22:26;;;;;;;87.57;32.93;;;;;;;;;;5011264;28;20919;-56
2020/12/13 04:24:52;;;;;;;76.90;31.20;;;;;;;;;;5011250;28;20431;-56
2020/12/13 04:27:18;;;;;;;88.53;35.03;;;;;;;;;;5011353;28;20561;-55
2020/12/13 04:29:44;;;;;;;84.70;31.90;;;;;;;;;;5011140;28;20399;-55
2020/12/13 04:32:10;;;;;;;93.50;34.20;;;;;;;;;;5011186;28;20399;-56
2020/12/13 04:34:36;;;;;;;81.17;33.00;;;;;;;;;;5010882;28;20441;-56
2020/12/13 04:37:02;;;;;;;86.83;32.77;;;;;;;;;;5011291;28;20414;-56
2020/12/13 04:39:28;;;;;;;80.80;33.60;;;;;;;;;;5010966;28;20407;-56
2020/12/13 04:41:55;;;;;;;94.60;34.23;;;;;;;;;;5010242;28;20438;-56
2020/12/13 04:44:21;;;;;;;72.33;31.70;;;;;;;;;;5010813;28;20426;-55
2020/12/13 04:46:47;;;;;;;74.17;31.87;;;;;;;;;;5011157;28;20540;-55
2020/12/13 04:49:14;;;;;;;81.87;34.17;;;;;;;;;;5011114;28;20408;-56
2020/12/13 04:51:43;;;;;;;75.70;31.17;;;;;;;;;;5011153;28;20492;-55
2020/12/13 04:54:09;;;;;;;68.50;29.53;;;;;;;;;;5010968;28;20407;-55
2020/12/13 04:56:36;;;;;;;82.37;32.67;;;;;;;;;;5011109;28;20407;-56
2020/12/13 04:59:03;;;;;;;83.53;30.13;;;;;;;;;;5011016;28;20418;-56
2020/12/13 05:01:29;;;;;;;75.77;30.90;;;;;;;;;;5015309;28;20457;-56
2020/12/13 05:03:55;;;;;;;76.40;30.60;;;;;;;;;;5017303;28;20402;-56
2020/12/13 05:06:22;;;;;;;73.50;31.43;;;;;;;;;;5017470;28;20481;-55
2020/12/13 05:08:48;;;;;;;87.13;31.63;;;;;;;;;;5017494;28;20403;-56
2020/12/13 05:11:15;;;;;;;71.83;32.83;;;;;;;;;;5017405;28;20414;-56
2020/12/13 05:13:41;;;;;;;73.43;31.03;;;;;;;;;;5016395;28;20927;-56
2020/12/13 05:16:08;;;;;;;73.73;30.40;;;;;;;;;;5017165;28;20423;-55
2020/12/13 05:18:37;;;;;;;75.83;31.93;;;;;;;;;;5017361;28;20407;-55
2020/12/13 05:21:04;;;;;;;73.97;32.47;;;;;;;;;;5017217;28;20922;-55
2020/12/13 05:23:30;;;;;;;69.40;28.30;;;;;;;;;;5017219;28;20402;-55
2020/12/13 05:25:56;;;;;;;66.10;28.30;;;;;;;;;;5017165;28;20426;-56
2020/12/13 05:28:24;;;;;;;73.63;30.80;;;;;;;;;;5017175;28;20413;-55
2020/12/13 05:30:50;;;;;;;75.67;32.57;;;;;;;;;;5017208;28;20889;-55
2020/12/13 05:33:35;;;;;;;74.83;31.13;;;;;;;;;;5017033;28;20783;-55
2020/12/13 05:36:01;;;;;;;66.40;29.50;;;;;;;;;;5017296;28;20429;-55
2020/12/13 05:38:31;;;;;;;75.33;31.60;;;;;;;;;;5017000;28;20437;-56
2020/12/13 05:40:57;;;;;;;66.77;29.90;;;;;;;;;;5017196;28;20410;-57
2020/12/13 05:43:25;;;;;;;64.90;28.53;;;;;;;;;;5015952;28;20433;-55
2020/12/13 05:46:14;;;;;;;65.20;30.07;;;;;;;;;;5017301;28;20454;-56
2020/12/13 05:51:37;;;;;;;71.23;29.70;;;;;;;;;;5017093;28;20409;-56
2020/12/13 05:54:04;;;;;;;71.13;29.80;;;;;;;;;;5016620;28;20886;-56
2020/12/13 05:56:30;;;;;;;60.60;28.20;;;;;;;;;;5017151;28;20409;-55
2020/12/13 05:58:57;;;;;;;68.97;29.93;;;;;;;;;;5016861;28;20421;-56
2020/12/13 06:01:24;;;;;;;66.40;29.30;;;;;;;;;;5017064;28;20824;-55
2020/12/13 06:03:52;;;;;;;62.97;28.10;;;;;;;;;;5016652;28;20432;-56
2020/12/13 06:06:21;;;;;;;62.30;28.00;;;;;;;;;;5016717;28;20531;-56
2020/12/13 06:08:56;;;;;;;64.40;27.83;;;;;;;;;;5016769;28;20452;-55
2020/12/13 06:11:22;;;;;;;67.80;30.20;;;;;;;;;;5016610;28;20409;-56
2020/12/13 06:13:53;;;;;;;71.07;30.53;;;;;;;;;;5011657;28;20450;-55
2020/12/13 06:16:19;;;;;;;59.57;26.97;;;;;;;;;;5013627;28;20431;-55
2020/12/13 06:18:44;;;;;;;65.00;29.57;;;;;;;;;;5013560;28;20469;-57
2020/12/13 06:21:11;;;;;;;67.80;27.50;;;;;;;;;;5013265;28;20439;-55
2020/12/13 06:23:38;;;;;;;65.33;28.50;;;;;;;;;;5013603;28;20404;-55
2020/12/13 06:26:05;;;;;;;65.17;27.67;;;;;;;;;;5013658;28;20517;-55
2020/12/13 06:28:31;;;;;;;79.13;29.30;;;;;;;;;;5013840;28;20887;-56
2020/12/13 06:30:57;;;;;;;66.30;28.87;;;;;;;;;;5013655;28;20407;-55
2020/12/13 06:33:23;;;;;;;77.77;28.27;;;;;;;;;;5013346;28;20406;-56
2020/12/13 06:35:51;;;;;;;73.37;29.17;;;;;;;;;;5013439;28;20422;-55
2020/12/13 06:38:19;;;;;;;76.33;29.37;;;;;;;;;;5013338;28;20522;-55
2020/12/13 06:40:47;;;;;;;69.77;28.53;;;;;;;;;;5013175;28;20464;-55
2020/12/13 06:43:13;;;;;;;78.27;30.17;;;;;;;;;;5012263;28;20405;-56
2020/12/13 06:45:39;;;;;;;75.30;33.77;;;;;;;;;;5013023;28;20434;-55
2020/12/13 06:48:05;;;;;;;82.37;28.13;;;;;;;;;;5013115;28;20455;-55
2020/12/13 06:50:31;;;;;;;72.90;29.23;;;;;;;;;;5013123;28;20435;-55
2020/12/13 06:52:57;;;;;;;79.80;30.20;;;;;;;;;;5012702;28;20457;-55
2020/12/13 06:55:32;;;;;;;74.00;29.37;;;;;;;;;;5012963;28;20928;-55
2020/12/13 06:57:59;;;;;;;80.37;29.37;;;;;;;;;;5012987;28;20441;-55
2020/12/13 07:00:25;;;;;;;85.53;33.50;;;;;;;;;;5012858;28;20967;-55
2020/12/13 07:02:58;;;;;;;68.10;26.10;;;;;;;;;;5012610;28;20410;-55
2020/12/13 07:05:47;;;;;;;77.07;29.10;;;;;;;;;;5012724;28;20939;-55
2020/12/13 07:08:17;;;;;;;76.47;28.90;;;;;;;;;;5012430;28;20457;-56
2020/12/13 07:10:50;;;;;;;78.40;29.20;;;;;;;;;;5012526;28;20852;-55
2020/12/13 07:13:19;;;;;;;76.10;27.40;;;;;;;;;;5012394;28;20824;-55
2020/12/13 07:16:02;;;;;;;68.63;27.40;;;;;;;;;;5011846;28;20450;-55
2020/12/13 07:18:30;;;;;;;75.20;31.10;;;;;;;;;;5012506;28;20418;-55
2020/12/13 07:20:56;;;;;;;67.60;28.00;;;;;;;;;;5012570;28;20493;-56
2020/12/13 07:23:23;;;;;;;69.37;28.00;;;;;;;;;;5011801;28;20499;-55
2020/12/13 07:25:49;;;;;;;66.67;25.70;;;;;;;;;;5012389;28;20453;-56
2020/12/13 07:28:16;;;;;;;76.73;28.67;;;;;;;;;;5012361;28;20458;-55
2020/12/13 07:30:42;;;;;;;76.63;27.53;;;;;;;;;;5012186;28;20880;-55
2020/12/13 07:33:08;;;;;;;71.13;29.00;;;;;;;;;;5012203;28;20399;-55
2020/12/13 07:35:34;;;;;;;70.60;26.13;;;;;;;;;;5011967;28;20470;-55
2020/12/13 07:38:01;;;;;;;69.17;26.00;;;;;;;;;;5012338;28;20525;-55
2020/12/13 07:40:28;;;;;;;65.20;25.37;;;;;;;;;;5011995;28;20418;-55
2020/12/13 07:42:58;;;;;;;79.53;26.53;;;;;;;;;;5012204;28;20414;-55
2020/12/13 07:45:24;;;;;;;70.20;26.20;;;;;;;;;;5011023;28;20450;-55
2020/12/13 07:47:51;;;;;;;57.70;25.20;;;;;;;;;;5011994;28;20983;-55
2020/12/13 07:50:17;;;;;;;56.43;24.47;;;;;;;;;;5012143;28;20418;-55
2020/12/13 07:52:44;;;;;;;71.27;26.10;;;;;;;;;;5030104;28;20440;-54
2020/12/13 07:55:11;;;;;;;58.00;24.40;;;;;;;;;;5014558;28;20598;-54
2020/12/13 07:57:37;;;;;;;68.83;23.90;;;;;;;;;;5014312;28;20497;-60
2020/12/13 08:00:09;;;;;;;52.27;24.60;;;;;;;;;;5014250;28;20402;-54
2020/12/13 08:02:36;;;;;;;51.80;22.77;;;;;;;;;;5012614;28;20494;-55
2020/12/13 08:05:02;;;;;;;50.33;22.90;;;;;;;;;;5014695;28;20434;-53
2020/12/13 08:07:29;;;;;;;45.30;21.23;;;;;;;;;;5013504;28;20537;-54
2020/12/13 08:09:57;;;;;;;50.03;23.80;;;;;;;;;;5012577;28;20399;-53
2020/12/13 08:12:30;;;;;;;53.57;22.83;;;;;;;;;;5013876;28;20821;-54
2020/12/13 08:14:56;;;;;;;53.00;20.17;;;;;;;;;;5012014;28;20418;-54
2020/12/13 08:17:22;;;;;;;50.30;21.77;;;;;;;;;;5012639;28;20936;-53
2020/12/13 08:19:48;;;;;;;61.33;24.87;;;;;;;;;;5011509;28;20804;-54
2020/12/13 08:22:21;;;;;;;48.57;22.40;;;;;;;;;;5011330;28;20410;-53
2020/12/13 08:25:06;;;;;;;54.10;25.00;;;;;;;;;;5015240;28;20438;-54
2020/12/13 08:27:36;;;;;;;58.60;24.37;;;;;;;;;;5013392;28;20454;-55
2020/12/13 08:30:04;;;;;;;58.97;24.70;;;;;;;;;;5014974;28;20413;-56
2020/12/13 08:32:34;;;;;;;51.83;23.93;;;;;;;;;;5012741;28;20402;-55
2020/12/13 08:35:10;;;;;;;49.70;23.73;;;;;;;;;;5014422;28;20489;-53
2020/12/13 08:37:40;;;;;;;54.83;26.00;;;;;;;;;;5015034;28;20397;-54
2020/12/13 08:40:09;;;;;;;52.20;23.10;;;;;;;;;;5014670;28;20399;-55
2020/12/13 08:42:40;;;;;;;48.23;22.90;;;;;;;;;;5013663;28;20415;-56
2020/12/13 08:45:07;;;;;;;47.73;23.43;;;;;;;;;;5013746;28;20509;-56
2020/12/13 08:47:32;;;;;;;51.53;23.13;;;;;;;;;;5013194;28;20477;-53
2020/12/13 08:49:59;;;;;;;55.93;24.33;;;;;;;;;;5011781;28;20740;-56
2020/12/13 08:52:26;;;;;;;45.43;23.33;;;;;;;;;;5012811;28;20414;-55
2020/12/13 08:54:54;;;;;;;42.93;22.90;;;;;;;;;;5013221;28;20449;-55
2020/12/13 08:57:30;;;;;;;47.13;23.70;;;;;;;;;;5014374;28;20414;-55
2020/12/13 08:59:57;;;;;;;42.63;24.10;;;;;;;;;;5013736;28;20417;-54
2020/12/13 09:02:23;;;;;;;43.60;22.57;;;;;;;;;;5012576;28;20416;-55
2020/12/13 09:04:56;;;;;;;48.10;23.27;;;;;;;;;;5013997;28;20426;-55
2020/12/13 09:07:23;;;;;;;50.50;21.53;;;;;;;;;;5012457;28;20457;-55
2020/12/13 09:09:49;;;;;;;40.87;21.77;;;;;;;;;;5011878;28;20510;-54
2020/12/13 09:12:19;;;;;;;46.80;22.10;;;;;;;;;;5012011;28;20830;-53
2020/12/13 09:14:45;;;;;;;42.67;22.70;;;;;;;;;;5011550;28;20426;-55
2020/12/13 09:17:11;;;;;;;47.03;21.67;;;;;;;;;;5012756;28;20434;-53
2020/12/13 09:19:50;;;;;;;37.13;20.23;;;;;;;;;;5013482;28;20561;-55
2020/12/13 09:22:22;;;;;;;42.47;22.07;;;;;;;;;;5013631;28;20468;-55
2020/12/13 09:24:49;;;;;;;36.83;19.97;;;;;;;;;;5012808;28;20430;-56
2020/12/13 09:27:20;;;;;;;44.50;20.97;;;;;;;;;;5013125;28;20464;-54
2020/12/13 09:29:47;;;;;;;41.50;21.70;;;;;;;;;;5011641;28;20756;-55
2020/12/13 09:32:14;;;;;;;48.53;21.43;;;;;;;;;;5012911;28;20406;-56
2020/12/13 09:34:44;;;;;;;38.13;20.40;;;;;;;;;;5012833;28;20453;-56
2020/12/13 09:37:10;;;;;;;37.73;18.93;;;;;;;;;;5013008;28;20936;-54
2020/12/13 09:39:37;;;;;;;40.53;19.00;;;;;;;;;;5010494;28;20413;-54
2020/12/13 09:42:03;;;;;;;33.13;18.10;;;;;;;;;;5009229;28;20414;-53
2020/12/13 09:44:29;;;;;;;31.20;17.90;;;;;;;;;;5010443;28;20473;-53
2020/12/13 09:46:57;;;;;;;27.13;16.50;;;;;;;;;;5011124;28;20490;-54
2020/12/13 09:49:23;;;;;;;28.10;17.07;;;;;;;;;;5014637;28;20407;-55
2020/12/13 09:51:49;;;;;;;28.63;17.00;;;;;;;;;;5014054;28;20425;-55
2020/12/13 09:54:15;;;;;;;34.70;17.07;;;;;;;;;;5013358;28;20453;-55
2020/12/13 09:56:41;;;;;;;27.70;16.00;;;;;;;;;;5013342;28;20906;-56
2020/12/13 09:59:07;;;;;;;28.43;18.00;;;;;;;;;;5013952;28;20906;-56
2020/12/13 10:01:33;;;;;;;23.83;14.67;;;;;;;;;;5013891;28;20397;-56
2020/12/13 10:03:59;;;;;;;27.20;16.40;;;;;;;;;;5013990;28;20413;-55
2020/12/13 10:06:49;;;;;;;21.57;14.93;;;;;;;;;;5013813;28;20461;-56
2020/12/13 10:09:16;;;;;;;27.33;15.90;;;;;;;;;;5013937;28;20394;-56
2020/12/13 10:11:43;;;;;;;30.50;15.43;;;;;;;;;;5013807;28;20453;-55
2020/12/13 10:14:11;;;;;;;27.47;16.10;;;;;;;;;;5013594;28;20494;-56
2020/12/13 10:16:37;;;;;;;30.83;16.70;;;;;;;;;;5013696;28;20424;-56
2020/12/13 10:19:03;;;;;;;24.87;15.67;;;;;;;;;;5012851;28;20542;-56
2020/12/13 10:21:30;;;;;;;32.37;16.30;;;;;;;;;;5013683;28;20407;-55
2020/12/13 10:23:57;;;;;;;31.50;17.90;;;;;;;;;;5013286;28;20402;-55
2020/12/13 10:26:26;;;;;;;27.23;15.40;;;;;;;;;;5013288;28;20457;-53
2020/12/13 10:28:53;;;;;;;27.30;16.37;;;;;;;;;;5013381;28;20407;-54
2020/12/13 10:31:19;;;;;;;31.70;15.90;;;;;;;;;;5013750;28;20485;-53
2020/12/13 10:33:46;;;;;;;21.70;15.20;;;;;;;;;;5013202;28;20403;-53
2020/12/13 10:36:13;;;;;;;32.53;15.23;;;;;;;;;;5013377;28;20430;-53
2020/12/13 10:38:39;;;;;;;24.00;14.87;;;;;;;;;;5013268;28;20402;-54
2020/12/13 10:41:05;;;;;;;21.40;13.57;;;;;;;;;;5013433;28;20433;-53
2020/12/13 10:43:32;;;;;;;28.37;16.03;;;;;;;;;;5013256;28;20847;-53
2020/12/13 10:45:58;;;;;;;22.30;13.70;;;;;;;;;;5013593;28;20418;-53
2020/12/13 10:48:24;;;;;;;21.83;15.20;;;;;;;;;;5012570;28;20472;-53
2020/12/13 10:50:50;;;;;;;21.83;14.67;;;;;;;;;;5013500;28;20415;-53
2020/12/13 10:53:16;;;;;;;24.23;14.23;;;;;;;;;;5013174;28;20417;-53
2020/12/13 10:55:42;;;;;;;27.03;15.17;;;;;;;;;;5012952;28;20430;-53
2020/12/13 10:58:07;;;;;;;28.40;14.77;;;;;;;;;;5012432;28;20414;-53
2020/12/13 11:00:33;;;;;;;21.10;14.90;;;;;;;;;;5012779;28;20414;-56
2020/12/13 11:02:59;;;;;;;28.30;15.10;;;;;;;;;;5012784;28;20906;-55
2020/12/13 11:05:25;;;;;;;25.60;14.80;;;;;;;;;;5012605;28;20933;-54
2020/12/13 11:07:51;;;;;;;20.33;14.97;;;;;;;;;;5012770;28;20454;-55
2020/12/13 11:10:17;;;;;;;20.43;13.63;;;;;;;;;;5012339;28;20410;-56
2020/12/13 11:12:43;;;;;;;29.90;13.63;;;;;;;;;;5012519;28;20425;-56
2020/12/13 11:15:09;;;;;;;21.60;13.20;;;;;;;;;;5012522;28;20449;-56
2020/12/13 11:17:35;;;;;;;18.20;12.77;;;;;;;;;;5010675;28;21096;-56
2020/12/13 11:20:03;;;;;;;19.07;12.30;;;;;;;;;;5012648;28;20685;-55
2020/12/13 11:22:29;;;;;;;18.00;12.27;;;;;;;;;;5012308;28;20411;-55
2020/12/13 11:24:55;;;;;;;17.70;12.30;;;;;;;;;;5011559;28;20461;-56
2020/12/13 11:27:21;;;;;;;18.20;12.27;;;;;;;;;;5012344;28;20462;-56
2020/12/13 11:29:47;;;;;;;20.77;13.10;;;;;;;;;;5012346;28;20395;-56
2020/12/13 11:32:13;;;;;;;18.47;12.97;;;;;;;;;;5012116;28;20399;-55
2020/12/13 11:34:39;;;;;;;26.77;12.67;;;;;;;;;;5012185;28;21041;-56
2020/12/13 11:37:05;;;;;;;16.70;11.07;;;;;;;;;;5012489;28;20783;-56
2020/12/13 11:39:31;;;;;;;17.60;10.87;;;;;;;;;;5012103;28;20653;-55
2020/12/13 11:41:58;;;;;;;16.07;10.43;;;;;;;;;;5011991;28;20511;-55
2020/12/13 11:44:25;;;;;;;15.10;10.73;;;;;;;;;;5012063;28;20458;-56
2020/12/13 11:46:51;;;;;;;20.03;11.80;;;;;;;;;;5012169;28;20825;-56
2020/12/13 11:49:17;;;;;;;13.77;10.03;;;;;;;;;;5011015;28;20437;-56
2020/12/13 11:51:43;;;;;;;17.77;11.10;;;;;;;;;;5012109;28;20871;-56
2020/12/13 11:54:09;;;;;;;24.30;11.17;;;;;;;;;;5011473;28;20400;-55
2020/12/13 11:56:35;;;;;;;20.27;11.00;;;;;;;;;;5011971;28;20407;-56
2020/12/13 11:59:01;;;;;;;13.40;9.03;;;;;;;;;;5011800;28;20421;-55
2020/12/13 12:01:27;;;;;;;14.73;9.67;;;;;;;;;;5011844;28;20407;-56
2020/12/13 12:03:53;;;;;;;15.33;10.43;;;;;;;;;;5011500;28;20415;-56
2020/12/13 12:06:19;;;;;;;9.90;8.40;;;;;;;;;;5011582;28;20553;-55
2020/12/13 12:08:46;;;;;;;15.83;9.10;;;;;;;;;;5011389;28;20433;-56
2020/12/13 12:11:21;;;;;;;13.53;8.50;;;;;;;;;;5011664;28;20891;-55
2020/12/13 12:13:47;;;;;;;14.60;8.77;;;;;;;;;;5011335;28;20409;-55
2020/12/13 12:16:14;;;;;;;18.53;9.30;;;;;;;;;;5011542;28;20423;-56
2020/12/13 12:18:40;;;;;;;14.00;8.20;;;;;;;;;;5010559;28;20836;-55
2020/12/13 12:21:10;;;;;;;10.47;8.53;;;;;;;;;;5011722;28;20460;-53
2020/12/13 12:23:36;;;;;;;15.00;9.40;;;;;;;;;;5011322;28;20407;-53
2020/12/13 12:26:02;;;;;;;13.23;7.67;;;;;;;;;;5011254;28;20534;-53
2020/12/13 12:28:28;;;;;;;18.80;8.53;;;;;;;;;;5011349;28;20458;-53
2020/12/13 12:30:54;;;;;;;11.60;7.40;;;;;;;;;;5011251;28;20949;-53
2020/12/13 12:33:20;;;;;;;11.67;7.50;;;;;;;;;;5011139;28;20808;-53
2020/12/13 12:35:46;;;;;;;9.13;6.23;;;;;;;;;;5010967;28;20802;-53
2020/12/13 12:38:12;;;;;;;9.53;6.23;;;;;;;;;;5011227;28;20429;-53
2020/12/13 12:40:38;;;;;;;9.90;7.20;;;;;;;;;;5011073;28;20410;-54
2020/12/13 12:43:04;;;;;;;9.10;6.63;;;;;;;;;;5011036;28;20494;-54
2020/12/13 12:45:30;;;;;;;9.90;6.97;;;;;;;;;;5011404;28;20423;-53
2020/12/13 12:47:56;;;;;;;8.80;6.20;;;;;;;;;;5011157;28;20457;-53
2020/12/13 12:50:22;;;;;;;7.17;6.43;;;;;;;;;;5010396;28;20429;-53
2020/12/13 12:52:48;;;;;;;8.30;6.50;;;;;;;;;;5011105;28;20410;-54
2020/12/13 12:55:14;;;;;;;8.93;6.77;;;;;;;;;;5011316;28;20431;-53
2020/12/13 12:57:40;;;;;;;7.07;5.90;;;;;;;;;;5011172;28;20400;-54
2020/12/13 13:02:39;;;;;;;6.33;5.73;;;;;;;;;;5010924;28;20419;-53
2020/12/13 13:05:10;;;;;;;5.50;5.00;;;;;;;;;;5011011;28;20453;-54
2020/12/13 13:07:40;;;;;;;9.70;5.00;;;;;;;;;;5010848;28;20463;-54
2020/12/13 13:10:14;;;;;;;8.07;5.27;;;;;;;;;;5010885;28;20410;-54
2020/12/13 13:12:40;;;;;;;8.63;4.80;;;;;;;;;;5010566;28;20496;-54
2020/12/13 13:15:13;;;;;;;9.40;5.10;;;;;;;;;;5010799;28;20487;-54
2020/12/13 13:17:51;;;;;;;5.80;4.97;;;;;;;;;;5010748;28;20804;-54
2020/12/13 13:20:17;;;;;;;8.33;4.60;;;;;;;;;;5010030;28;20435;-53
2020/12/13 13:22:43;;;;;;;11.23;5.07;;;;;;;;;;5013352;28;20399;-53
2020/12/13 13:25:09;;;;;;;5.30;4.80;;;;;;;;;;5013300;28;20448;-53
2020/12/13 13:27:35;;;;;;;7.83;5.43;;;;;;;;;;5014531;28;20454;-53
2020/12/13 13:30:02;;;;;;;5.17;4.67;;;;;;;;;;5014341;28;20407;-53
2020/12/13 13:32:28;;;;;;;5.30;4.50;;;;;;;;;;5014395;28;20769;-55
2020/12/13 13:34:54;;;;;;;7.80;4.70;;;;;;;;;;5014147;28;20518;-54
2020/12/13 13:37:20;;;;;;;4.37;3.80;;;;;;;;;;5014526;28;20402;-53
2020/12/13 13:39:46;;;;;;;6.20;4.30;;;;;;;;;;5014274;28;20952;-53
2020/12/13 13:42:13;;;;;;;3.90;3.60;;;;;;;;;;5014138;28;20464;-53
2020/12/13 13:50:42;;;;;;;4.00;3.60;;;;;;;;;;4969665;28;20490;-54
2020/12/13 13:53:11;;;;;;;5.17;4.60;;;;;;;;;;5008012;28;20489;-55
2020/12/13 13:55:39;;;;;;;5.63;4.00;;;;;;;;;;5013893;28;20996;-53
2020/12/13 13:58:05;;;;;;;4.37;3.50;;;;;;;;;;5014229;28;20407;-54
2020/12/13 14:00:32;;;;;;;5.33;4.20;;;;;;;;;;5013850;28;20920;-54
2020/12/13 14:02:58;;;;;;;4.80;3.70;;;;;;;;;;5013863;28;20399;-54
2020/12/13 14:05:25;;;;;;;6.20;4.27;;;;;;;;;;5013651;28;20470;-53
2020/12/13 14:10:29;;;;;;;6.93;3.93;;;;;;;;;;5012510;28;20418;-53
2020/12/13 14:12:55;;;;;;;4.03;3.70;;;;;;;;;;5012846;28;20408;-54
2020/12/13 14:15:21;;;;;;;6.80;4.40;;;;;;;;;;5013768;28;20429;-53
2020/12/13 14:17:47;;;;;;;5.03;4.23;;;;;;;;;;5013476;28;20457;-55
2020/12/13 14:20:13;;;;;;;6.50;3.57;;;;;;;;;;5012998;28;20462;-54
2020/12/13 14:22:39;;;;;;;6.17;4.10;;;;;;;;;;5013238;28;20469;-56
2020/12/13 14:25:05;;;;;;;5.93;4.10;;;;;;;;;;5013341;28;20998;-54
2020/12/13 14:27:31;;;;;;;7.63;4.30;;;;;;;;;;5013372;28;20666;-55
2020/12/13 14:29:57;;;;;;;6.30;4.90;;;;;;;;;;5013350;28;20403;-53
2020/12/13 14:32:23;;;;;;;9.20;5.00;;;;;;;;;;5013043;28;20414;-54
2020/12/13 14:34:49;;;;;;;13.70;5.27;;;;;;;;;;5012159;28;20446;-53